Time;durP1;ratioP1;P1;durP2;ratioP2;P2;SDS_P1;SDS_P2;PMS_P1;PMS_P2;Temp;Humidity;BMP_temperature;BMP_pressure;BME280_temperature;BME280_humidity;BME280_pressure;Samples;Min_cycle;Max_cycle;Signal;HPM_P1;HPM_P2
2022/06/19 00:01:46;;;;;;;12.82;2.42;;;13.80;99.90;;;;;;5069050;28;20503;-82
2022/06/19 00:04:12;;;;;;;8.55;1.80;;;13.80;99.90;;;;;;5053414;28;20123;-80
2022/06/19 00:06:39;;;;;;;9.05;1.58;;;13.80;99.90;;;;;;5052851;28;20037;-80
2022/06/19 00:09:06;;;;;;;7.93;1.38;;;13.80;99.90;;;;;;5035656;28;20052;-82
2022/06/19 00:11:33;;;;;;;8.82;1.55;;;13.70;99.90;;;;;;5036263;28;20168;-83
2022/06/19 00:14:00;;;;;;;8.32;1.75;;;13.70;99.90;;;;;;5053014;28;20068;-82
2022/06/19 00:16:26;;;;;;;8.25;1.98;;;13.70;99.90;;;;;;5073915;28;20127;-82
2022/06/19 00:18:52;;;;;;;7.28;1.70;;;13.70;99.90;;;;;;5072832;28;20187;-83
2022/06/19 00:21:18;;;;;;;6.18;2.22;;;13.70;99.90;;;;;;5070216;28;20041;-82
2022/06/19 00:23:45;;;;;;;10.38;1.73;;;13.70;99.90;;;;;;5073830;28;20059;-82
2022/06/19 00:26:12;;;;;;;9.13;1.30;;;13.70;99.90;;;;;;5038800;28;20083;-83
2022/06/19 00:28:40;;;;;;;12.85;1.90;;;13.70;99.90;;;;;;5053068;28;20052;-82
2022/06/19 00:31:09;;;;;;;9.00;1.52;;;13.80;99.90;;;;;;5052755;28;20041;-83
2022/06/19 00:33:35;;;;;;;6.20;1.52;;;13.80;99.90;;;;;;5057087;28;20483;-81
2022/06/19 00:36:01;;;;;;;5.45;1.63;;;13.70;99.90;;;;;;5073052;28;20112;-81
2022/06/19 00:38:26;;;;;;;11.75;1.98;;;13.70;99.90;;;;;;5068681;28;20045;-82
2022/06/19 00:40:59;;;;;;;9.70;1.80;;;13.70;99.90;;;;;;5053505;28;20114;-81
2022/06/19 00:43:26;;;;;;;9.98;1.80;;;13.80;99.90;;;;;;5052841;28;20044;-81
2022/06/19 00:45:53;;;;;;;11.77;1.95;;;13.70;99.90;;;;;;5053691;28;20129;-81
2022/06/19 00:48:27;;;;;;;10.25;1.58;;;13.70;99.90;;;;;;5053498;28;20135;-82
2022/06/19 00:50:54;;;;;;;11.15;2.00;;;13.70;99.90;;;;;;5068537;28;20041;-80
2022/06/19 00:53:31;;;;;;;10.77;1.95;;;13.70;99.90;;;;;;5053711;28;20041;-81
2022/06/19 00:55:57;;;;;;;11.25;2.50;;;13.80;99.90;;;;;;5072540;28;20444;-81
2022/06/19 00:58:27;;;;;;;22.90;2.28;;;13.80;99.90;;;;;;5070644;28;20051;-85
2022/06/19 01:00:58;;;;;;;8.57;1.73;;;13.80;99.90;;;;;;5069374;28;20135;-82
2022/06/19 01:03:29;;;;;;;8.93;2.10;;;13.80;99.90;;;;;;5070409;28;20040;-80
2022/06/19 01:05:55;;;;;;;11.80;1.42;;;13.80;99.90;;;;;;5053553;28;20120;-82
2022/06/19 01:08:21;;;;;;;14.40;2.42;;;13.90;99.90;;;;;;5051802;28;20550;-80
2022/06/19 01:10:50;;;;;;;12.57;1.70;;;13.90;99.90;;;;;;5069161;28;20399;-80
2022/06/19 01:13:18;;;;;;;10.45;1.85;;;13.90;99.90;;;;;;5071934;28;20063;-82
2022/06/19 01:15:45;;;;;;;10.85;2.17;;;13.90;99.90;;;;;;5053125;28;20573;-82
2022/06/19 01:18:12;;;;;;;9.68;2.10;;;13.90;99.90;;;;;;5051429;28;20055;-80
2022/06/19 01:20:40;;;;;;;11.23;2.10;;;14.00;99.90;;;;;;5062954;28;20044;-80
2022/06/19 01:23:25;;;;;;;12.85;2.03;;;14.00;99.90;;;;;;5053223;28;20048;-82
2022/06/19 01:25:52;;;;;;;10.95;2.45;;;14.00;99.90;;;;;;5052255;28;20131;-81
2022/06/19 01:28:45;;;;;;;14.18;2.47;;;14.00;99.90;;;;;;5076677;28;20052;-80
2022/06/19 01:31:28;;;;;;;14.43;2.17;;;14.10;99.90;;;;;;5073079;28;20568;-83
2022/06/19 01:34:28;;;;;;;18.65;2.72;;;14.10;99.90;;;;;;5057766;28;20055;-80
2022/06/19 01:37:26;;;;;;;17.25;2.50;;;14.10;99.90;;;;;;5053214;28;20124;-80
2022/06/19 01:40:01;;;;;;;18.02;3.03;;;14.10;99.90;;;;;;5026703;28;20064;-83
2022/06/19 01:42:29;;;;;;;17.77;3.00;;;14.00;99.90;;;;;;5053051;28;20041;-79
2022/06/19 01:44:56;;;;;;;18.85;2.75;;;14.00;99.90;;;;;;5051694;28;20107;-80
2022/06/19 01:47:25;;;;;;;17.48;3.63;;;13.90;99.90;;;;;;5050823;28;20508;-81
2022/06/19 01:49:54;;;;;;;8.05;1.90;;;13.80;99.90;;;;;;5053342;28;20444;-80
2022/06/19 01:52:22;;;;;;;15.43;3.03;;;13.80;99.90;;;;;;5052541;28;20048;-83
2022/06/19 01:54:58;;;;;;;17.00;2.90;;;13.80;99.90;;;;;;5069970;28;20511;-80
2022/06/19 01:57:24;;;;;;;19.75;3.75;;;13.80;99.90;;;;;;5073010;28;20044;-81
2022/06/19 01:59:51;;;;;;;21.48;3.70;;;13.70;99.90;;;;;;5069212;28;20044;-80
2022/06/19 02:02:18;;;;;;;21.25;3.67;;;13.70;99.90;;;;;;5071702;28;20088;-80
2022/06/19 02:04:45;;;;;;;24.27;5.05;;;13.70;99.90;;;;;;5053866;28;20099;-82
2022/06/19 02:07:23;;;;;;;22.98;3.25;;;13.70;99.90;;;;;;5059483;28;20044;-82
2022/06/19 02:09:54;;;;;;;18.90;3.33;;;13.80;99.90;;;;;;5071416;28;20538;-84
2022/06/19 02:12:22;;;;;;;15.82;3.00;;;13.80;99.90;;;;;;5044231;28;20049;-82
2022/06/19 02:14:49;;;;;;;21.15;4.45;;;13.80;99.90;;;;;;5051957;28;20108;-80
2022/06/19 02:17:25;;;;;;;20.88;3.20;;;13.80;99.90;;;;;;5052518;28;20052;-83
2022/06/19 02:19:53;;;;;;;15.85;2.78;;;13.80;99.90;;;;;;5054382;28;20041;-82
2022/06/19 02:22:18;;;;;;;22.00;3.60;;;13.80;99.90;;;;;;5064141;28;20052;-81
2022/06/19 02:24:45;;;;;;;19.27;3.47;;;13.80;99.90;;;;;;5075234;28;20048;-81
2022/06/19 02:27:11;;;;;;;19.80;2.97;;;13.80;99.90;;;;;;5067131;28;20488;-81
2022/06/19 02:29:40;;;;;;;18.27;2.75;;;13.80;99.90;;;;;;5055516;28;20040;-82
2022/06/19 02:32:18;;;;;;;24.67;3.38;;;13.80;99.90;;;;;;5054722;28;20044;-81
2022/06/19 02:34:44;;;;;;;16.45;3.45;;;13.90;99.90;;;;;;5054083;28;20056;-81
2022/06/19 02:37:17;;;;;;;22.42;3.58;;;13.80;99.90;;;;;;5054667;28;20037;-81
2022/06/19 02:39:58;;;;;;;20.40;3.47;;;13.80;99.90;;;;;;5071675;28;20464;-81
2022/06/19 02:42:33;;;;;;;14.05;3.33;;;13.80;99.90;;;;;;5055169;28;20488;-81
2022/06/19 02:45:02;;;;;;;18.55;3.60;;;13.80;99.90;;;;;;5055986;28;20445;-81
2022/06/19 02:47:32;;;;;;;22.23;3.15;;;13.90;99.90;;;;;;5088252;28;20446;-81
2022/06/19 02:49:58;;;;;;;23.63;3.47;;;13.90;99.90;;;;;;5073808;28;20159;-81
2022/06/19 02:52:23;;;;;;;16.85;3.08;;;13.90;99.90;;;;;;5059045;28;20132;-81
2022/06/19 02:54:49;;;;;;;18.02;2.72;;;13.90;99.90;;;;;;5055617;28;20052;-82
2022/06/19 02:57:16;;;;;;;20.48;2.47;;;13.90;99.90;;;;;;5067399;28;20075;-81
2022/06/19 02:59:43;;;;;;;21.02;3.63;;;13.80;99.90;;;;;;5075619;28;20484;-82
2022/06/19 03:02:11;;;;;;;20.08;3.17;;;13.90;99.90;;;;;;5074684;28;20052;-82
2022/06/19 03:04:42;;;;;;;17.40;3.63;;;13.90;99.90;;;;;;5073907;28;20044;-82
2022/06/19 03:07:08;;;;;;;17.95;2.85;;;13.80;99.90;;;;;;5062627;28;20053;-81
2022/06/19 03:09:34;;;;;;;16.23;2.80;;;13.90;99.90;;;;;;5062731;28;20102;-82
2022/06/19 03:11:59;;;;;;;19.25;3.70;;;13.80;99.90;;;;;;5070030;28;20102;-81
2022/06/19 03:14:25;;;;;;;12.80;2.20;;;13.80;99.90;;;;;;5060333;28;20037;-81
2022/06/19 03:16:52;;;;;;;17.00;2.33;;;13.80;99.90;;;;;;5073413;28;20036;-80
2022/06/19 03:19:17;;;;;;;18.67;2.88;;;13.80;99.90;;;;;;5070159;28;20041;-81
2022/06/19 03:21:43;;;;;;;24.10;4.20;;;13.80;99.90;;;;;;5055271;28;20408;-82
2022/06/19 03:24:09;;;;;;;14.45;2.63;;;13.80;99.90;;;;;;5054507;28;20076;-82
2022/06/19 03:26:35;;;;;;;16.92;2.80;;;13.80;99.90;;;;;;5053779;28;20041;-82
2022/06/19 03:29:01;;;;;;;15.27;2.53;;;13.90;99.90;;;;;;5053710;28;20049;-81
2022/06/19 03:31:29;;;;;;;21.42;3.28;;;13.90;99.90;;;;;;5069346;28;20480;-82
2022/06/19 03:33:55;;;;;;;21.73;3.03;;;13.90;99.90;;;;;;5053781;28;20052;-84
2022/06/19 03:36:22;;;;;;;25.40;3.53;;;13.80;99.90;;;;;;5055072;28;20381;-82
2022/06/19 03:38:48;;;;;;;18.88;3.35;;;13.70;99.90;;;;;;5069398;28;20052;-82
2022/06/19 03:41:14;;;;;;;19.63;3.00;;;13.60;99.90;;;;;;5087112;28;20405;-81
2022/06/19 03:43:40;;;;;;;21.27;2.90;;;13.50;99.90;;;;;;5073535;28;20149;-82
2022/06/19 03:46:14;;;;;;;16.80;2.75;;;13.50;99.90;;;;;;5072887;28;20400;-84
2022/06/19 03:48:45;;;;;;;20.63;2.80;;;13.40;99.90;;;;;;5067466;28;20120;-83
2022/06/19 03:51:11;;;;;;;16.33;2.63;;;13.30;99.90;;;;;;5054766;28;20060;-82
2022/06/19 03:53:37;;;;;;;18.40;2.80;;;13.30;99.90;;;;;;5052750;28;20045;-82
2022/06/19 03:56:04;;;;;;;22.38;4.07;;;13.20;99.90;;;;;;5054424;28;20107;-82
2022/06/19 03:58:46;;;;;;;15.43;2.92;;;13.20;99.90;;;;;;5072588;28;20462;-84
2022/06/19 04:01:17;;;;;;;18.75;3.15;;;13.10;99.90;;;;;;5073770;28;20037;-83
2022/06/19 04:03:45;;;;;;;18.15;2.67;;;13.10;99.90;;;;;;5071523;28;20051;-83
2022/06/19 04:06:12;;;;;;;16.88;2.58;;;13.10;99.90;;;;;;5072456;28;20043;-83
2022/06/19 04:08:39;;;;;;;22.88;3.95;;;13.00;99.90;;;;;;5069060;28;20041;-81
2022/06/19 04:11:06;;;;;;;20.48;3.83;;;12.90;99.90;;;;;;5054328;28;20037;-82
2022/06/19 04:13:33;;;;;;;27.00;3.65;;;12.80;99.90;;;;;;5053726;28;20111;-80
2022/06/19 04:15:59;;;;;;;20.70;2.85;;;12.80;99.90;;;;;;5072831;28;20090;-79
2022/06/19 04:18:26;;;;;;;17.20;3.70;;;12.70;99.90;;;;;;5073317;28;20048;-79
2022/06/19 04:20:52;;;;;;;20.50;2.78;;;12.70;99.90;;;;;;5052154;28;20067;-79
2022/06/19 04:23:18;;;;;;;19.83;4.55;;;12.60;99.90;;;;;;5061327;28;20403;-79
2022/06/19 04:25:44;;;;;;;28.45;4.28;;;12.40;99.90;;;;;;5072603;28;20059;-78
2022/06/19 04:28:10;;;;;;;25.48;4.47;;;12.40;99.90;;;;;;5064809;28;20124;-80
2022/06/19 04:30:37;;;;;;;25.23;3.80;;;12.40;99.90;;;;;;5053958;28;20469;-81
2022/06/19 04:33:03;;;;;;;20.90;4.05;;;12.40;99.90;;;;;;5059806;28;20043;-79
2022/06/19 04:35:29;;;;;;;16.85;4.60;;;12.40;99.90;;;;;;5072808;28;20445;-80
2022/06/19 04:37:55;;;;;;;20.85;4.50;;;12.40;99.90;;;;;;5071714;28;20041;-80
2022/06/19 04:40:21;;;;;;;19.67;3.55;;;12.40;99.90;;;;;;5072508;28;20135;-80
2022/06/19 04:42:47;;;;;;;18.48;3.53;;;12.40;99.90;;;;;;5069588;28;20040;-79
2022/06/19 04:45:12;;;;;;;17.13;3.10;;;12.40;99.90;;;;;;5052250;28;20067;-79
2022/06/19 04:47:39;;;;;;;18.70;3.53;;;12.30;99.90;;;;;;5053683;28;20041;-79
2022/06/19 04:50:06;;;;;;;13.13;2.13;;;12.30;99.90;;;;;;5071381;28;20049;-79
2022/06/19 04:52:32;;;;;;;19.35;2.80;;;12.30;99.90;;;;;;5071779;28;20060;-78
2022/06/19 04:54:57;;;;;;;12.98;2.72;;;12.20;99.90;;;;;;5069233;28;20037;-81
2022/06/19 04:57:23;;;;;;;19.00;2.70;;;12.30;99.90;;;;;;5069311;28;20045;-78
2022/06/19 04:59:49;;;;;;;25.67;2.90;;;12.20;99.90;;;;;;5069058;28;20469;-78
2022/06/19 05:02:14;;;;;;;16.17;2.83;;;12.20;99.90;;;;;;5052800;28;20099;-78
2022/06/19 05:04:40;;;;;;;14.55;2.42;;;12.20;99.90;;;;;;5052079;28;20048;-79
2022/06/19 05:07:07;;;;;;;18.17;2.55;;;12.20;99.90;;;;;;5051685;28;20110;-79
2022/06/19 05:09:33;;;;;;;15.10;2.90;;;12.20;99.90;;;;;;5052609;28;20072;-78
2022/06/19 05:11:58;;;;;;;14.93;3.15;;;12.20;99.90;;;;;;5056873;28;20071;-79
2022/06/19 05:14:24;;;;;;;23.80;3.85;;;12.20;99.90;;;;;;5072433;28;20048;-80
2022/06/19 05:16:50;;;;;;;14.10;2.65;;;12.20;99.90;;;;;;5068441;28;20431;-79
2022/06/19 05:19:16;;;;;;;14.35;2.58;;;12.20;99.90;;;;;;5052203;28;20049;-79
2022/06/19 05:21:42;;;;;;;18.05;2.58;;;12.10;99.90;;;;;;5051944;28;20052;-79
2022/06/19 05:24:08;;;;;;;13.45;2.58;;;12.20;99.90;;;;;;5052437;28;20045;-80
2022/06/19 05:26:35;;;;;;;14.88;2.22;;;12.20;99.90;;;;;;5052148;28;20045;-78
2022/06/19 05:29:02;;;;;;;15.88;3.22;;;12.20;99.90;;;;;;5071594;28;20080;-79
2022/06/19 05:31:28;;;;;;;21.80;2.92;;;12.20;99.90;;;;;;5071151;28;20441;-79
2022/06/19 05:33:55;;;;;;;20.55;3.47;;;12.20;99.90;;;;;;5072037;28;20182;-77
2022/06/19 05:36:22;;;;;;;23.70;4.55;;;12.20;99.90;;;;;;5072103;28;20045;-79
2022/06/19 05:38:48;;;;;;;17.10;2.85;;;12.20;99.90;;;;;;5037520;28;20102;-80
2022/06/19 05:41:14;;;;;;;24.42;4.30;;;12.20;99.90;;;;;;5068456;28;20049;-80
2022/06/19 05:43:40;;;;;;;20.33;3.58;;;12.20;99.90;;;;;;5067368;28;20048;-80
2022/06/19 05:46:17;;;;;;;14.88;2.25;;;12.30;99.90;;;;;;5072194;28;20056;-80
2022/06/19 05:48:43;;;;;;;14.80;2.35;;;12.20;99.90;;;;;;5056560;28;20049;-78
2022/06/19 05:51:12;;;;;;;16.60;2.38;;;12.20;99.90;;;;;;5068387;28;20080;-79
2022/06/19 05:53:44;;;;;;;19.80;2.50;;;12.20;99.90;;;;;;5068458;28;20049;-79
2022/06/19 05:56:11;;;;;;;18.30;2.50;;;12.20;99.90;;;;;;5056996;28;20485;-78
2022/06/19 05:58:37;;;;;;;19.20;2.95;;;12.20;99.90;;;;;;5078048;28;20055;-79
2022/06/19 06:01:04;;;;;;;17.13;2.55;;;12.10;99.90;;;;;;5055660;28;20091;-77
2022/06/19 06:03:30;;;;;;;9.68;2.10;;;12.10;99.90;;;;;;5066488;28;20044;-79
2022/06/19 06:06:01;;;;;;;23.83;3.10;;;12.10;99.90;;;;;;5074491;28;20071;-78
2022/06/19 06:08:27;;;;;;;20.50;3.10;;;12.10;99.90;;;;;;5065683;28;20041;-78
2022/06/19 06:10:53;;;;;;;19.58;2.88;;;12.10;99.90;;;;;;5072344;28;20114;-80
2022/06/19 06:13:19;;;;;;;27.65;3.72;;;12.10;99.90;;;;;;5062644;28;20053;-80
2022/06/19 06:15:45;;;;;;;15.63;2.50;;;12.10;99.90;;;;;;5075334;28;20036;-79
2022/06/19 06:18:12;;;;;;;17.88;3.00;;;12.10;99.90;;;;;;5068970;28;20107;-80
2022/06/19 06:20:38;;;;;;;14.38;2.78;;;12.10;99.90;;;;;;5070982;28;20119;-78
2022/06/19 06:23:03;;;;;;;20.77;3.08;;;12.10;99.90;;;;;;5055166;28;20127;-79
2022/06/19 06:25:29;;;;;;;21.52;2.38;;;12.20;99.90;;;;;;5063897;28;20036;-80
2022/06/19 06:27:55;;;;;;;24.00;3.30;;;12.20;99.90;;;;;;5069768;28;20048;-78
2022/06/19 06:30:21;;;;;;;19.95;2.47;;;12.20;99.90;;;;;;5062772;28;20102;-76
2022/06/19 06:32:46;;;;;;;15.18;2.55;;;12.20;99.90;;;;;;5064727;28;20122;-76
2022/06/19 06:35:12;;;;;;;22.00;2.45;;;12.20;99.90;;;;;;5053772;28;20051;-77
2022/06/19 06:37:38;;;;;;;18.35;2.75;;;12.30;99.90;;;;;;5038248;28;20508;-77
2022/06/19 06:40:06;;;;;;;21.83;2.78;;;12.30;99.90;;;;;;5056018;28;20080;-75
2022/06/19 06:42:33;;;;;;;17.55;2.55;;;12.30;99.90;;;;;;5062810;28;20049;-76
2022/06/19 06:44:59;;;;;;;16.85;2.30;;;12.30;99.90;;;;;;5055389;28;20514;-77
2022/06/19 06:47:25;;;;;;;13.02;2.45;;;12.40;99.90;;;;;;5057568;28;20036;-78
2022/06/19 06:49:50;;;;;;;17.75;2.25;;;12.40;99.90;;;;;;5057082;28;20048;-77
2022/06/19 06:52:16;;;;;;;20.45;2.47;;;12.50;99.90;;;;;;5066418;28;20036;-78
2022/06/19 06:54:42;;;;;;;10.65;1.90;;;12.50;99.90;;;;;;5094749;28;20059;-77
2022/06/19 06:57:08;;;;;;;15.57;2.00;;;12.60;99.90;;;;;;5079584;28;20179;-78
2022/06/19 06:59:36;;;;;;;17.20;2.35;;;12.60;99.90;;;;;;5070942;28;20510;-77
2022/06/19 07:02:02;;;;;;;15.18;2.33;;;12.60;99.90;;;;;;5054771;28;20041;-77
2022/06/19 07:04:27;;;;;;;20.00;2.92;;;12.60;99.90;;;;;;5054528;28;20111;-77
2022/06/19 07:06:53;;;;;;;20.85;2.75;;;12.60;99.90;;;;;;5053449;28;20444;-77
2022/06/19 07:09:19;;;;;;;17.88;2.45;;;12.60;99.90;;;;;;5053345;28;20136;-77
2022/06/19 07:11:46;;;;;;;25.45;3.30;;;12.70;99.90;;;;;;5056212;28;20181;-77
2022/06/19 07:14:13;;;;;;;16.98;2.15;;;12.70;99.90;;;;;;5064674;28;20385;-78
2022/06/19 07:16:40;;;;;;;16.65;2.53;;;12.70;99.90;;;;;;5071514;28;20056;-77
2022/06/19 07:19:07;;;;;;;15.88;2.70;;;12.80;99.90;;;;;;5053994;28;20056;-77
2022/06/19 07:21:33;;;;;;;19.45;2.80;;;12.80;99.90;;;;;;5053568;28;20049;-76
2022/06/19 07:23:59;;;;;;;19.45;2.30;;;12.80;99.90;;;;;;5054501;28;20099;-77
2022/06/19 07:26:26;;;;;;;17.15;2.05;;;12.80;99.90;;;;;;5055250;28;20504;-76
2022/06/19 07:28:52;;;;;;;15.10;2.55;;;12.80;99.90;;;;;;5053683;28;20051;-77
2022/06/19 07:31:18;;;;;;;13.30;2.60;;;12.90;99.90;;;;;;5052951;28;20091;-76
2022/06/19 07:33:44;;;;;;;17.33;2.58;;;12.90;99.90;;;;;;5053810;28;20049;-76
2022/06/19 07:36:17;;;;;;;18.63;2.92;;;12.80;99.90;;;;;;5054460;28;20476;-77
2022/06/19 07:38:43;;;;;;;13.63;1.98;;;12.80;99.90;;;;;;5054055;28;20045;-77
2022/06/19 07:41:09;;;;;;;14.70;2.20;;;12.80;99.90;;;;;;5069041;28;20047;-77
2022/06/19 07:43:35;;;;;;;12.85;2.30;;;12.80;99.90;;;;;;5073462;28;20105;-77
2022/06/19 07:46:01;;;;;;;10.65;2.17;;;12.80;99.90;;;;;;5060364;28;20037;-77
2022/06/19 07:51:11;;;;;;;12.57;2.47;;;12.90;99.90;;;;;;5052285;28;20045;-76
2022/06/19 07:53:37;;;;;;;15.27;2.80;;;12.90;99.90;;;;;;5054578;28;20107;-77
2022/06/19 07:56:03;;;;;;;14.25;2.80;;;12.90;99.90;;;;;;5069759;28;20476;-77
2022/06/19 07:58:28;;;;;;;11.73;2.22;;;13.00;99.90;;;;;;5053887;28;20044;-76
2022/06/19 08:00:54;;;;;;;18.33;2.92;;;13.00;99.90;;;;;;5062878;28;20036;-77
2022/06/19 08:03:20;;;;;;;17.38;2.47;;;13.00;99.90;;;;;;5073476;28;20044;-78
2022/06/19 08:05:46;;;;;;;19.02;2.40;;;13.00;99.90;;;;;;5063789;28;20040;-77
2022/06/19 08:08:19;;;;;;;14.75;2.53;;;13.00;99.90;;;;;;5054399;28;20091;-77
2022/06/19 08:10:47;;;;;;;16.48;2.70;;;13.10;99.90;;;;;;5068592;28;20078;-76
2022/06/19 08:13:14;;;;;;;15.30;2.70;;;13.10;99.90;;;;;;5082722;28;20055;-77
2022/06/19 08:15:41;;;;;;;16.30;2.13;;;13.10;99.90;;;;;;5091814;28;20048;-77
2022/06/19 08:18:09;;;;;;;13.15;2.50;;;13.10;99.90;;;;;;5071799;28;20488;-77
2022/06/19 08:20:35;;;;;;;15.10;1.98;;;13.20;99.90;;;;;;5072217;28;20044;-77
2022/06/19 08:23:03;;;;;;;11.98;2.28;;;13.20;99.90;;;;;;5070439;28;20048;-78
2022/06/19 08:25:29;;;;;;;18.70;2.88;;;13.20;99.90;;;;;;5072785;28;20040;-78
2022/06/19 08:27:54;;;;;;;18.15;2.78;;;13.30;99.90;;;;;;5072017;28;20123;-78
2022/06/19 08:30:26;;;;;;;15.68;2.85;;;13.30;99.90;;;;;;5064507;28;20044;-77
2022/06/19 08:32:53;;;;;;;11.77;2.85;;;13.40;99.90;;;;;;5073758;28;20491;-77
2022/06/19 08:35:19;;;;;;;8.52;2.20;;;13.30;99.90;;;;;;5071685;28;20052;-77
2022/06/19 08:37:50;;;;;;;14.70;2.03;;;13.30;99.90;;;;;;5073891;28;20460;-78
2022/06/19 08:40:48;;;;;;;11.95;2.88;;;13.40;99.90;;;;;;5057357;28;20045;-78
2022/06/19 08:43:36;;;;;;;9.25;1.90;;;13.40;99.90;;;;;;5052472;28;20041;-78
2022/06/19 08:46:05;;;;;;;13.63;3.03;;;13.50;99.90;;;;;;5054162;28;20044;-78
2022/06/19 08:48:49;;;;;;;14.73;2.13;;;13.50;99.90;;;;;;5051524;28;20044;-77
2022/06/19 08:51:42;;;;;;;11.77;2.50;;;13.60;99.90;;;;;;5052484;28;20056;-75
2022/06/19 08:54:34;;;;;;;10.05;1.75;;;13.60;99.90;;;;;;5055818;28;20040;-77
2022/06/19 08:57:13;;;;;;;10.32;2.10;;;13.60;99.90;;;;;;5071009;28;20042;-77
2022/06/19 08:59:58;;;;;;;9.65;2.10;;;13.60;99.90;;;;;;5072516;28;20118;-77
2022/06/19 09:02:48;;;;;;;10.70;1.97;;;13.60;99.90;;;;;;5065831;28;20041;-76
2022/06/19 09:08:11;;;;;;;9.18;1.92;;;13.60;99.90;;;;;;5052100;28;20045;-77
2022/06/19 09:10:51;;;;;;;10.18;2.50;;;13.60;99.90;;;;;;5051176;28;20098;-76
2022/06/19 09:13:54;;;;;;;8.65;2.15;;;13.70;99.90;;;;;;5052008;28;20057;-77
2022/06/19 09:17:01;;;;;;;11.27;1.58;;;13.70;99.90;;;;;;5052241;28;20132;-77
2022/06/19 09:19:30;;;;;;;10.90;2.20;;;13.80;99.90;;;;;;5029940;28;20076;-76
2022/06/19 09:22:32;;;;;;;9.07;1.60;;;13.90;99.90;;;;;;5053208;28;20045;-77
2022/06/19 09:25:07;;;;;;;9.88;2.00;;;13.90;99.90;;;;;;5051886;28;20055;-78
2022/06/19 09:27:41;;;;;;;11.52;1.75;;;14.00;99.90;;;;;;5051831;28;20048;-76
2022/06/19 09:30:43;;;;;;;15.48;1.50;;;14.00;99.90;;;;;;5055531;28;20049;-76
2022/06/19 09:33:42;;;;;;;6.35;1.20;;;14.00;99.90;;;;;;5024579;28;20136;-78
2022/06/19 09:36:39;;;;;;;6.80;1.63;;;14.00;99.90;;;;;;5057347;28;20395;-77
2022/06/19 09:39:17;;;;;;;8.52;2.22;;;14.00;99.90;;;;;;5065716;28;20048;-77
2022/06/19 09:41:49;;;;;;;6.05;1.13;;;13.90;99.90;;;;;;5076065;28;20492;-80
2022/06/19 09:44:45;;;;;;;8.00;1.25;;;14.00;99.90;;;;;;5065010;28;20100;-75
2022/06/19 09:47:28;;;;;;;11.43;1.60;;;14.00;99.90;;;;;;5055562;28;20114;-77
2022/06/19 09:50:06;;;;;;;9.20;1.17;;;14.00;99.90;;;;;;5055414;28;20057;-76
2022/06/19 09:53:05;;;;;;;12.77;1.67;;;14.10;99.90;;;;;;5056277;28;20044;-75
2022/06/19 09:55:51;;;;;;;9.55;1.05;;;14.10;99.90;;;;;;5046296;28;20147;-78
2022/06/19 09:58:19;;;;;;;9.52;1.55;;;14.10;99.90;;;;;;5057620;28;20051;-77
2022/06/19 10:00:48;;;;;;;6.35;1.42;;;14.00;99.90;;;;;;5076926;28;20083;-77
2022/06/19 10:03:27;;;;;;;5.72;1.83;;;14.10;99.90;;;;;;5072175;28;20053;-79
2022/06/19 10:05:55;;;;;;;7.47;1.23;;;14.10;99.90;;;;;;5055802;28;20500;-76
2022/06/19 10:08:52;;;;;;;10.52;1.67;;;14.20;99.90;;;;;;5055132;28;20049;-78
2022/06/19 10:11:27;;;;;;;7.32;1.58;;;14.20;99.90;;;;;;5055596;28;20388;-78
2022/06/19 10:14:08;;;;;;;6.80;1.40;;;14.30;99.90;;;;;;5070824;28;20057;-80
2022/06/19 10:16:45;;;;;;;6.30;1.48;;;14.30;99.90;;;;;;5055215;28;20053;-79
2022/06/19 10:19:16;;;;;;;4.80;1.10;;;14.30;99.90;;;;;;5054688;28;20048;-78
2022/06/19 10:22:35;;;;;;;5.03;1.02;;;14.50;99.90;;;;;;5055575;28;20075;-78
2022/06/19 10:25:16;;;;;;;5.97;1.10;;;14.60;99.90;;;;;;5053351;28;20485;-77
2022/06/19 10:27:52;;;;;;;6.63;1.05;;;14.70;99.90;;;;;;5070394;28;20045;-80
2022/06/19 10:30:24;;;;;;;7.88;1.25;;;14.70;99.90;;;;;;5054963;28;20041;-78
2022/06/19 10:33:14;;;;;;;6.07;1.30;;;14.70;99.90;;;;;;5053782;28;20103;-77
2022/06/19 10:36:11;;;;;;;6.60;1.40;;;14.80;99.90;;;;;;5071557;28;20045;-76
2022/06/19 10:38:48;;;;;;;6.68;1.38;;;15.00;99.90;;;;;;5054847;28;20049;-76
2022/06/19 10:44:47;;;;;;;3.25;0.98;;;15.30;99.90;;;;;;5054588;28;20131;-77
2022/06/19 10:47:53;;;;;;;5.93;1.13;;;15.50;99.90;;;;;;5053622;28;20488;-77
2022/06/19 10:50:18;;;;;;;5.43;1.00;;;15.60;99.90;;;;;;5053668;28;20045;-77
2022/06/19 10:52:50;;;;;;;3.85;0.73;;;15.60;99.90;;;;;;5072312;28;20049;-77
2022/06/19 10:55:37;;;;;;;2.90;1.27;;;15.70;99.90;;;;;;5075068;28;20041;-77
2022/06/19 10:58:09;;;;;;;2.35;0.80;;;15.60;99.90;;;;;;5058011;28;20044;-77
2022/06/19 11:00:35;;;;;;;3.08;1.20;;;15.60;99.90;;;;;;5075711;28;20046;-77
2022/06/19 11:06:41;;;;;;;2.70;0.70;;;15.60;99.90;;;;;;5070922;28;20481;-77
2022/06/19 11:09:14;;;;;;;3.90;1.08;;;15.50;99.90;;;;;;5066918;28;20071;-78
2022/06/19 11:11:42;;;;;;;4.25;0.77;;;15.40;99.90;;;;;;5057447;28;20048;-77
2022/06/19 11:14:11;;;;;;;1.45;0.50;;;15.40;99.90;;;;;;5076691;28;20048;-78
2022/06/19 11:16:55;;;;;;;2.65;0.85;;;15.30;99.90;;;;;;5054619;28;20045;-77
2022/06/19 11:19:45;;;;;;;4.10;0.90;;;15.20;99.90;;;;;;5061351;28;20437;-78
2022/06/19 11:22:32;;;;;;;3.70;1.00;;;15.10;99.90;;;;;;5094916;28;20478;-76
2022/06/19 11:25:32;;;;;;;3.40;0.80;;;15.10;99.90;;;;;;5083206;28;20087;-79
2022/06/19 11:28:09;;;;;;;2.78;0.70;;;15.10;99.90;;;;;;5074890;28;20052;-78
2022/06/19 11:30:40;;;;;;;3.00;0.90;;;15.10;99.90;;;;;;5069574;28;20048;-77
2022/06/19 11:33:13;;;;;;;5.18;1.00;;;15.00;99.90;;;;;;5075219;28;20491;-77
2022/06/19 11:35:53;;;;;;;4.47;0.98;;;14.90;99.90;;;;;;5073756;28;20036;-77
2022/06/19 11:38:36;;;;;;;5.47;0.88;;;14.80;99.90;;;;;;5073039;28;20049;-77
2022/06/19 11:41:33;;;;;;;2.90;0.88;;;14.80;99.90;;;;;;5056441;28;20053;-77
2022/06/19 11:44:16;;;;;;;3.40;0.80;;;14.70;99.90;;;;;;5054147;28;20083;-76
2022/06/19 11:46:50;;;;;;;6.25;1.13;;;14.70;99.90;;;;;;5073142;28;20056;-78
2022/06/19 11:49:22;;;;;;;6.95;1.92;;;14.70;99.90;;;;;;5073721;28;20123;-78
2022/06/19 11:51:48;;;;;;;6.03;1.33;;;14.60;99.90;;;;;;5052980;28;20370;-78
2022/06/19 11:54:15;;;;;;;5.22;1.40;;;14.60;99.90;;;;;;5054310;28;20048;-78
2022/06/19 11:56:42;;;;;;;6.18;1.30;;;14.60;99.90;;;;;;5055050;28;20041;-78
2022/06/19 11:59:26;;;;;;;11.57;2.42;;;14.60;99.90;;;;;;5053633;28;20044;-76
2022/06/19 12:01:52;;;;;;;6.60;1.50;;;14.60;99.90;;;;;;5054872;28;20041;-77
2022/06/19 12:04:34;;;;;;;7.45;1.55;;;14.50;99.90;;;;;;5053555;28;20485;-79
2022/06/19 12:07:03;;;;;;;5.20;1.20;;;14.50;99.90;;;;;;5054498;28;20041;-76
2022/06/19 12:10:12;;;;;;;6.60;1.40;;;14.50;99.90;;;;;;5052788;28;20052;-77
2022/06/19 12:12:37;;;;;;;10.13;1.40;;;14.60;99.90;;;;;;5044733;28;20052;-77
2022/06/19 12:15:12;;;;;;;10.93;2.17;;;14.60;99.90;;;;;;5053035;28;20071;-78
2022/06/19 12:17:42;;;;;;;;;;;14.80;99.90;;;;;;5054548;28;20041;-76
2022/06/19 12:20:08;;;;;;;8.18;1.83;;;15.10;99.90;;;;;;5069195;28;19968;-77
2022/06/19 12:22:44;;;;;;;9.80;1.42;;;15.20;99.90;;;;;;5073028;28;20049;-77
2022/06/19 12:25:28;;;;;;;5.68;1.33;;;15.40;99.90;;;;;;5057196;28;20057;-79
2022/06/19 12:28:31;;;;;;;5.63;1.42;;;15.50;99.90;;;;;;5052811;28;20511;-77
2022/06/19 12:31:03;;;;;;;6.80;1.70;;;15.50;99.90;;;;;;5027146;28;20045;-77
2022/06/19 12:33:42;;;;;;;6.57;1.42;;;15.70;99.90;;;;;;5031863;28;20053;-78
2022/06/19 12:36:30;;;;;;;7.07;1.50;;;15.80;99.90;;;;;;5052786;28;20111;-78
2022/06/19 12:38:56;;;;;;;5.32;1.73;;;16.10;99.90;;;;;;5053972;28;20037;-79
2022/06/19 12:41:43;;;;;;;6.57;1.30;;;16.20;99.90;;;;;;5060173;28;20404;-79
2022/06/19 12:44:34;;;;;;;4.75;1.10;;;16.30;99.90;;;;;;5074091;28;20105;-78
2022/06/19 12:47:32;;;;;;;8.95;2.55;;;16.30;99.90;;;;;;5068943;28;20052;-77
2022/06/19 12:50:22;;;;;;;15.07;1.70;;;16.20;99.90;;;;;;5072502;28;20106;-79
2022/06/19 12:52:54;;;;;;;7.18;1.02;;;16.20;99.90;;;;;;5072251;28;20536;-77
2022/06/19 12:55:38;;;;;;;5.78;1.20;;;16.20;99.90;;;;;;5065579;28;20045;-79
2022/06/19 12:58:35;;;;;;;4.03;1.33;;;16.20;99.90;;;;;;5068949;28;20106;-77
2022/06/19 13:01:25;;;;;;;6.75;1.45;;;16.10;99.90;;;;;;5061676;28;20044;-79
2022/06/19 13:04:22;;;;;;;4.00;0.95;;;16.00;99.90;;;;;;5069688;28;20049;-79
2022/06/19 13:06:58;;;;;;;6.25;1.48;;;15.90;99.90;;;;;;5067946;28;20115;-79
2022/06/19 13:09:43;;;;;;;5.95;1.50;;;15.90;99.90;;;;;;5051500;28;20045;-79
2022/06/19 13:12:26;;;;;;;4.05;1.10;;;15.90;99.90;;;;;;5053119;28;20044;-78
2022/06/19 13:15:30;;;;;;;5.85;1.05;;;16.00;99.90;;;;;;5070768;28;20567;-79
2022/06/19 13:18:27;;;;;;;4.78;1.10;;;16.00;99.90;;;;;;5065520;28;20441;-79
2022/06/19 13:21:05;;;;;;;7.43;1.17;;;16.00;99.90;;;;;;5051938;28;20091;-81